sensor_id;sensor_type;location;lat;lon;timestamp;pressure;altitude;pressure_sealevel;temperature;humidity
39177;BME280;24904;52.208;21.192;2023-04-30T00:04:56;100259.67;;;11.80;57.33
39177;BME280;24904;52.208;21.192;2023-04-30T00:10:01;100260.71;;;11.82;57.47
39177;BME280;24904;52.208;21.192;2023-04-30T00:15:08;100260.75;;;11.78;57.60
39177;BME280;24904;52.208;21.192;2023-04-30T00:20:14;100261.77;;;11.76;57.82
39177;BME280;24904;52.208;21.192;2023-04-30T00:25:18;100264.20;;;11.76;57.98
39177;BME280;24904;52.208;21.192;2023-04-30T00:30:23;100261.77;;;11.77;58.74
39177;BME280;24904;52.208;21.192;2023-04-30T00:35:27;100260.58;;;11.73;59.34
39177;BME280;24904;52.208;21.192;2023-04-30T00:40:34;100266.39;;;11.70;60.05
39177;BME280;24904;52.208;21.192;2023-04-30T00:45:38;100265.30;;;11.63;61.71
39177;BME280;24904;52.208;21.192;2023-04-30T00:50:44;100270.45;;;11.51;62.49
39177;BME280;24904;52.208;21.192;2023-04-30T00:55:48;100271.63;;;11.39;63.53
39177;BME280;24904;52.208;21.192;2023-04-30T01:12:11;100275.23;;;11.14;65.55
39177;BME280;24904;52.208;21.192;2023-04-30T01:17:23;100275.73;;;11.07;66.37
39177;BME280;24904;52.208;21.192;2023-04-30T01:22:43;100274.73;;;10.99;66.66
39177;BME280;24904;52.208;21.192;2023-04-30T01:28:02;100278.80;;;10.89;67.29
39177;BME280;24904;52.208;21.192;2023-04-30T01:33:06;100276.55;;;10.83;67.45
39177;BME280;24904;52.208;21.192;2023-04-30T01:38:19;100282.38;;;10.77;67.31
39177;BME280;24904;52.208;21.192;2023-04-30T01:43:32;100282.77;;;10.74;67.55
39177;BME280;24904;52.208;21.192;2023-04-30T01:48:45;100286.02;;;10.70;67.94
39177;BME280;24904;52.208;21.192;2023-04-30T01:53:53;100289.83;;;10.68;68.22
39177;BME280;24904;52.208;21.192;2023-04-30T01:59:00;100291.06;;;10.64;68.50
39177;BME280;24904;52.208;21.192;2023-04-30T02:04:04;100288.38;;;10.62;68.99
39177;BME280;24904;52.208;21.192;2023-04-30T02:09:07;100296.11;;;10.59;69.32
39177;BME280;24904;52.208;21.192;2023-04-30T02:14:12;100298.98;;;10.55;69.84
39177;BME280;24904;52.208;21.192;2023-04-30T02:19:15;100295.02;;;10.53;70.10
39177;BME280;24904;52.208;21.192;2023-04-30T02:24:18;100294.83;;;10.50;70.11
39177;BME280;24904;52.208;21.192;2023-04-30T02:29:21;100297.23;;;10.46;70.70
39177;BME280;24904;52.208;21.192;2023-04-30T02:34:24;100298.15;;;10.44;71.03
39177;BME280;24904;52.208;21.192;2023-04-30T02:39:27;100305.68;;;10.44;71.12
39177;BME280;24904;52.208;21.192;2023-04-30T02:44:30;100313.39;;;10.40;71.64
39177;BME280;24904;52.208;21.192;2023-04-30T02:49:33;100310.48;;;10.38;72.06
39177;BME280;24904;52.208;21.192;2023-04-30T02:54:36;100314.56;;;10.39;72.17
39177;BME280;24904;52.208;21.192;2023-04-30T02:59:39;100325.16;;;10.40;72.58
39177;BME280;24904;52.208;21.192;2023-04-30T03:04:47;100327.36;;;10.41;72.95
39177;BME280;24904;52.208;21.192;2023-04-30T03:09:50;100333.95;;;10.41;73.48
39177;BME280;24904;52.208;21.192;2023-04-30T03:14:53;100340.64;;;10.42;73.50
39177;BME280;24904;52.208;21.192;2023-04-30T03:19:56;100346.10;;;10.47;74.24
39177;BME280;24904;52.208;21.192;2023-04-30T03:24:59;100345.23;;;10.54;74.97
39177;BME280;24904;52.208;21.192;2023-04-30T03:30:03;100353.33;;;10.62;75.55
39177;BME280;24904;52.208;21.192;2023-04-30T03:35:08;100357.91;;;10.72;75.69
39177;BME280;24904;52.208;21.192;2023-04-30T03:40:12;100365.89;;;10.79;75.49
39177;BME280;24904;52.208;21.192;2023-04-30T03:45:15;100376.17;;;10.86;75.50
39177;BME280;24904;52.208;21.192;2023-04-30T03:50:18;100389.48;;;10.90;75.76
39177;BME280;24904;52.208;21.192;2023-04-30T03:55:21;100394.66;;;10.90;75.80
39177;BME280;24904;52.208;21.192;2023-04-30T04:00:25;100399.19;;;10.87;75.95
39177;BME280;24904;52.208;21.192;2023-04-30T04:05:28;100411.00;;;10.85;75.66
39177;BME280;24904;52.208;21.192;2023-04-30T04:10:31;100419.27;;;10.81;75.64
39177;BME280;24904;52.208;21.192;2023-04-30T04:15:34;100422.14;;;10.77;74.65
39177;BME280;24904;52.208;21.192;2023-04-30T04:20:38;100421.31;;;10.72;74.28
39177;BME280;24904;52.208;21.192;2023-04-30T04:25:41;100431.05;;;10.68;73.58
39177;BME280;24904;52.208;21.192;2023-04-30T04:30:46;100443.02;;;10.64;72.72
39177;BME280;24904;52.208;21.192;2023-04-30T04:35:50;100453.77;;;10.58;71.13
39177;BME280;24904;52.208;21.192;2023-04-30T04:40:55;100460.42;;;10.50;69.84
39177;BME280;24904;52.208;21.192;2023-04-30T04:45:58;100477.23;;;10.46;68.93
39177;BME280;24904;52.208;21.192;2023-04-30T04:51:02;100490.48;;;10.40;68.14
39177;BME280;24904;52.208;21.192;2023-04-30T04:56:06;100500.39;;;10.36;67.64
39177;BME280;24904;52.208;21.192;2023-04-30T05:01:09;100503.31;;;10.32;67.44
39177;BME280;24904;52.208;21.192;2023-04-30T05:06:12;100515.90;;;10.29;67.23
39177;BME280;24904;52.208;21.192;2023-04-30T05:11:15;100520.84;;;10.25;66.84
39177;BME280;24904;52.208;21.192;2023-04-30T05:16:18;100533.29;;;10.24;66.54
39177;BME280;24904;52.208;21.192;2023-04-30T05:21:21;100541.14;;;10.25;66.39
39177;BME280;24904;52.208;21.192;2023-04-30T05:26:24;100551.06;;;10.27;66.35
39177;BME280;24904;52.208;21.192;2023-04-30T05:31:27;100556.45;;;10.29;66.03
39177;BME280;24904;52.208;21.192;2023-04-30T05:36:31;100563.16;;;10.33;65.73
39177;BME280;24904;52.208;21.192;2023-04-30T05:41:34;100568.69;;;10.36;65.85
39177;BME280;24904;52.208;21.192;2023-04-30T05:46:37;100580.28;;;10.41;65.87
39177;BME280;24904;52.208;21.192;2023-04-30T06:00:15;100595.30;;;10.64;65.87
39177;BME280;24904;52.208;21.192;2023-04-30T06:05:18;100592.04;;;10.71;65.73
39177;BME280;24904;52.208;21.192;2023-04-30T06:10:21;100596.87;;;10.74;65.25
39177;BME280;24904;52.208;21.192;2023-04-30T06:15:24;100604.70;;;10.73;64.97
39177;BME280;24904;52.208;21.192;2023-04-30T06:20:27;100616.67;;;10.76;64.90
39177;BME280;24904;52.208;21.192;2023-04-30T06:25:30;100616.16;;;10.81;64.81
39177;BME280;24904;52.208;21.192;2023-04-30T06:30:33;100618.77;;;10.86;64.45
39177;BME280;24904;52.208;21.192;2023-04-30T06:35:37;100621.45;;;10.88;64.00
39177;BME280;24904;52.208;21.192;2023-04-30T06:40:40;100625.31;;;10.95;63.44
39177;BME280;24904;52.208;21.192;2023-04-30T06:45:43;100627.30;;;11.01;62.93
39177;BME280;24904;52.208;21.192;2023-04-30T06:50:46;100623.48;;;11.11;62.91
39177;BME280;24904;52.208;21.192;2023-04-30T06:55:49;100615.88;;;11.38;62.98
39177;BME280;24904;52.208;21.192;2023-04-30T07:00:52;100622.66;;;11.60;61.16
39177;BME280;24904;52.208;21.192;2023-04-30T07:05:55;100627.00;;;11.75;60.25
39177;BME280;24904;52.208;21.192;2023-04-30T07:10:58;100635.20;;;12.00;59.36
39177;BME280;24904;52.208;21.192;2023-04-30T07:16:01;100638.65;;;12.24;58.15
39177;BME280;24904;52.208;21.192;2023-04-30T07:21:05;100639.86;;;12.37;56.76
39177;BME280;24904;52.208;21.192;2023-04-30T07:26:09;100644.45;;;12.51;55.55
39177;BME280;24904;52.208;21.192;2023-04-30T07:31:12;100646.02;;;12.74;54.74
39177;BME280;24904;52.208;21.192;2023-04-30T07:36:15;100652.64;;;12.88;54.44
39177;BME280;24904;52.208;21.192;2023-04-30T07:41:18;100650.67;;;13.00;54.50
39177;BME280;24904;52.208;21.192;2023-04-30T07:46:22;100655.45;;;13.08;54.25
39177;BME280;24904;52.208;21.192;2023-04-30T07:51:26;100659.83;;;13.16;53.81
39177;BME280;24904;52.208;21.192;2023-04-30T07:56:29;100670.70;;;13.01;53.64
39177;BME280;24904;52.208;21.192;2023-04-30T08:01:32;100672.19;;;13.02;53.53
39177;BME280;24904;52.208;21.192;2023-04-30T08:06:35;100669.61;;;13.07;53.37
39177;BME280;24904;52.208;21.192;2023-04-30T08:12:17;100671.70;;;13.22;53.17
39177;BME280;24904;52.208;21.192;2023-04-30T08:17:20;100683.15;;;13.28;52.20
39177;BME280;24904;52.208;21.192;2023-04-30T08:22:23;100673.43;;;13.39;50.94
39177;BME280;24904;52.208;21.192;2023-04-30T08:27:26;100677.05;;;13.54;50.98
39177;BME280;24904;52.208;21.192;2023-04-30T08:32:29;100677.35;;;13.74;51.39
39177;BME280;24904;52.208;21.192;2023-04-30T08:37:33;100680.54;;;13.86;48.15
39177;BME280;24904;52.208;21.192;2023-04-30T08:42:37;100686.41;;;13.75;48.57
39177;BME280;24904;52.208;21.192;2023-04-30T08:47:41;100687.01;;;13.85;48.08
39177;BME280;24904;52.208;21.192;2023-04-30T08:52:45;100699.98;;;13.74;46.87
39177;BME280;24904;52.208;21.192;2023-04-30T08:57:48;100702.65;;;13.73;47.69
39177;BME280;24904;52.208;21.192;2023-04-30T09:02:51;100700.55;;;13.79;48.29
39177;BME280;24904;52.208;21.192;2023-04-30T09:07:54;100715.40;;;13.87;47.03
39177;BME280;24904;52.208;21.192;2023-04-30T09:13:01;100719.73;;;13.83;46.62
39177;BME280;24904;52.208;21.192;2023-04-30T09:18:12;100723.36;;;13.83;45.48
39177;BME280;24904;52.208;21.192;2023-04-30T09:23:17;100719.34;;;13.85;45.21
39177;BME280;24904;52.208;21.192;2023-04-30T09:28:21;100729.01;;;14.00;44.81
39177;BME280;24904;52.208;21.192;2023-04-30T09:33:26;100728.92;;;13.99;43.65
39177;BME280;24904;52.208;21.192;2023-04-30T09:38:31;100733.03;;;14.03;42.83
39177;BME280;24904;52.208;21.192;2023-04-30T09:43:34;100732.71;;;13.98;42.66
39177;BME280;24904;52.208;21.192;2023-04-30T09:48:46;100732.83;;;14.12;42.57
39177;BME280;24904;52.208;21.192;2023-04-30T09:53:57;100731.02;;;14.19;41.65
39177;BME280;24904;52.208;21.192;2023-04-30T09:59:02;100732.98;;;14.17;41.59
39177;BME280;24904;52.208;21.192;2023-04-30T10:04:07;100735.67;;;14.15;41.34
39177;BME280;24904;52.208;21.192;2023-04-30T10:09:10;100733.07;;;14.13;41.12
39177;BME280;24904;52.208;21.192;2023-04-30T10:14:17;100734.10;;;14.20;41.09
39177;BME280;24904;52.208;21.192;2023-04-30T10:19:23;100729.55;;;14.32;40.40
39177;BME280;24904;52.208;21.192;2023-04-30T10:24:27;100731.10;;;14.20;38.95
39177;BME280;24904;52.208;21.192;2023-04-30T10:29:30;100731.55;;;14.09;40.25
39177;BME280;24904;52.208;21.192;2023-04-30T10:34:40;100724.65;;;14.28;40.53
39177;BME280;24904;52.208;21.192;2023-04-30T10:39:46;100730.92;;;14.49;39.45
39177;BME280;24904;52.208;21.192;2023-04-30T10:44:50;100727.88;;;14.63;39.00
39177;BME280;24904;52.208;21.192;2023-04-30T10:50:02;100735.85;;;14.73;38.51
39177;BME280;24904;52.208;21.192;2023-04-30T10:59:06;100723.60;;;14.92;36.97
39177;BME280;24904;52.208;21.192;2023-04-30T11:04:11;100732.19;;;15.03;36.86
39177;BME280;24904;52.208;21.192;2023-04-30T11:09:14;100734.08;;;15.15;36.61
39177;BME280;24904;52.208;21.192;2023-04-30T11:14:20;100737.55;;;15.14;36.00
39177;BME280;24904;52.208;21.192;2023-04-30T11:19:24;100737.94;;;15.16;36.05
39177;BME280;24904;52.208;21.192;2023-04-30T11:24:49;100744.56;;;15.19;35.69
39177;BME280;24904;52.208;21.192;2023-04-30T11:29:52;100740.32;;;15.13;35.49
39177;BME280;24904;52.208;21.192;2023-04-30T11:34:56;100745.52;;;15.24;35.60
39177;BME280;24904;52.208;21.192;2023-04-30T11:40:01;100754.11;;;15.34;35.22
39177;BME280;24904;52.208;21.192;2023-04-30T11:45:08;100758.08;;;15.29;35.30
39177;BME280;24904;52.208;21.192;2023-04-30T11:50:12;100758.00;;;15.25;35.10
39177;BME280;24904;52.208;21.192;2023-04-30T11:55:16;100757.14;;;15.21;35.48
39177;BME280;24904;52.208;21.192;2023-04-30T12:00:21;100759.83;;;15.17;35.46
39177;BME280;24904;52.208;21.192;2023-04-30T12:05:26;100764.80;;;15.15;35.46
39177;BME280;24904;52.208;21.192;2023-04-30T12:10:31;100768.60;;;15.16;35.62
39177;BME280;24904;52.208;21.192;2023-04-30T12:15:34;100764.33;;;15.24;35.66
39177;BME280;24904;52.208;21.192;2023-04-30T12:20:38;100770.55;;;15.29;35.43
39177;BME280;24904;52.208;21.192;2023-04-30T12:25:42;100770.47;;;15.31;35.33
39177;BME280;24904;52.208;21.192;2023-04-30T12:30:45;100767.14;;;15.38;35.46
39177;BME280;24904;52.208;21.192;2023-04-30T12:35:52;100769.02;;;15.45;35.25
39177;BME280;24904;52.208;21.192;2023-04-30T12:40:56;100760.70;;;15.47;35.01
39177;BME280;24904;52.208;21.192;2023-04-30T12:45:59;100756.93;;;15.50;35.31
39177;BME280;24904;52.208;21.192;2023-04-30T12:51:02;100753.43;;;15.53;35.00
39177;BME280;24904;52.208;21.192;2023-04-30T12:56:13;100754.70;;;15.52;35.00
39177;BME280;24904;52.208;21.192;2023-04-30T13:01:18;100756.29;;;15.52;34.83
39177;BME280;24904;52.208;21.192;2023-04-30T13:06:22;100754.73;;;15.42;34.07
39177;BME280;24904;52.208;21.192;2023-04-30T13:11:25;100751.02;;;15.32;34.64
39177;BME280;24904;52.208;21.192;2023-04-30T13:16:28;100754.04;;;15.28;34.41
39177;BME280;24904;52.208;21.192;2023-04-30T13:21:31;100751.89;;;15.31;34.46
39177;BME280;24904;52.208;21.192;2023-04-30T13:26:35;100749.16;;;15.23;34.10
39177;BME280;24904;52.208;21.192;2023-04-30T13:31:37;100760.30;;;15.24;33.74
39177;BME280;24904;52.208;21.192;2023-04-30T13:36:40;100756.98;;;15.16;33.28
39177;BME280;24904;52.208;21.192;2023-04-30T13:41:43;100757.09;;;15.09;33.19
39177;BME280;24904;52.208;21.192;2023-04-30T13:46:46;100756.92;;;15.10;33.82
39177;BME280;24904;52.208;21.192;2023-04-30T13:51:49;100757.86;;;15.13;33.56
39177;BME280;24904;52.208;21.192;2023-04-30T13:56:52;100760.55;;;15.09;32.95
39177;BME280;24904;52.208;21.192;2023-04-30T14:01:56;100761.51;;;15.03;32.96
39177;BME280;24904;52.208;21.192;2023-04-30T14:06:59;100760.80;;;15.00;32.90
39177;BME280;24904;52.208;21.192;2023-04-30T14:12:02;100761.50;;;15.02;32.66
39177;BME280;24904;52.208;21.192;2023-04-30T14:17:06;100759.44;;;15.03;32.21
39177;BME280;24904;52.208;21.192;2023-04-30T14:22:09;100761.11;;;15.00;32.15
39177;BME280;24904;52.208;21.192;2023-04-30T14:27:12;100765.77;;;15.00;32.27
39177;BME280;24904;52.208;21.192;2023-04-30T14:38:31;100764.20;;;14.98;33.48
39177;BME280;24904;52.208;21.192;2023-04-30T14:43:34;100766.73;;;14.95;33.13
39177;BME280;24904;52.208;21.192;2023-04-30T14:48:37;100768.62;;;14.89;32.31
39177;BME280;24904;52.208;21.192;2023-04-30T14:53:40;100767.36;;;14.89;32.77
39177;BME280;24904;52.208;21.192;2023-04-30T14:58:44;100766.02;;;14.83;32.48
39177;BME280;24904;52.208;21.192;2023-04-30T15:04:11;100769.64;;;14.75;31.91
39177;BME280;24904;52.208;21.192;2023-04-30T15:09:14;100770.59;;;14.70;31.85
39177;BME280;24904;52.208;21.192;2023-04-30T15:14:17;100764.92;;;14.67;32.26
39177;BME280;24904;52.208;21.192;2023-04-30T15:19:20;100772.41;;;14.63;32.12
39177;BME280;24904;52.208;21.192;2023-04-30T15:24:23;100773.89;;;14.60;32.09
39177;BME280;24904;52.208;21.192;2023-04-30T15:29:27;100782.26;;;14.62;32.33
39177;BME280;24904;52.208;21.192;2023-04-30T15:34:30;100777.52;;;14.63;32.22
39177;BME280;24904;52.208;21.192;2023-04-30T15:39:33;100770.11;;;14.64;31.92
39177;BME280;24904;52.208;21.192;2023-04-30T15:44:36;100776.90;;;14.62;32.31
39177;BME280;24904;52.208;21.192;2023-04-30T15:49:39;100781.71;;;14.56;32.26
39177;BME280;24904;52.208;21.192;2023-04-30T15:54:42;100786.38;;;14.51;32.24
39177;BME280;24904;52.208;21.192;2023-04-30T15:59:45;100784.93;;;14.49;32.08
39177;BME280;24904;52.208;21.192;2023-04-30T16:04:48;100786.19;;;14.46;31.98
39177;BME280;24904;52.208;21.192;2023-04-30T16:09:51;100790.90;;;14.42;31.75
39177;BME280;24904;52.208;21.192;2023-04-30T16:14:54;100786.23;;;14.35;31.48
39177;BME280;24904;52.208;21.192;2023-04-30T16:19:57;100793.86;;;14.31;32.13
39177;BME280;24904;52.208;21.192;2023-04-30T16:25:01;100795.03;;;14.22;32.33
39177;BME280;24904;52.208;21.192;2023-04-30T16:30:06;100793.35;;;14.18;31.95
39177;BME280;24904;52.208;21.192;2023-04-30T16:35:10;100797.11;;;14.06;32.01
39177;BME280;24904;52.208;21.192;2023-04-30T16:40:13;100799.84;;;14.00;32.15
39177;BME280;24904;52.208;21.192;2023-04-30T16:45:17;100807.95;;;13.94;32.16
39177;BME280;24904;52.208;21.192;2023-04-30T16:50:20;100809.91;;;13.92;32.20
39177;BME280;24904;52.208;21.192;2023-04-30T16:55:25;100816.83;;;13.89;32.76
39177;BME280;24904;52.208;21.192;2023-04-30T17:00:29;100821.42;;;13.92;32.82
39177;BME280;24904;52.208;21.192;2023-04-30T17:05:32;100820.33;;;13.92;33.06
39177;BME280;24904;52.208;21.192;2023-04-30T17:10:35;100827.58;;;13.78;33.08
39177;BME280;24904;52.208;21.192;2023-04-30T17:15:40;100829.73;;;13.66;33.23
39177;BME280;24904;52.208;21.192;2023-04-30T17:20:44;100834.35;;;13.50;33.25
39177;BME280;24904;52.208;21.192;2023-04-30T17:25:47;100833.64;;;13.38;33.69
39177;BME280;24904;52.208;21.192;2023-04-30T17:30:50;100839.98;;;13.23;33.89
39177;BME280;24904;52.208;21.192;2023-04-30T17:35:54;100845.41;;;13.13;34.24
39177;BME280;24904;52.208;21.192;2023-04-30T17:40:57;100845.38;;;13.01;34.52
39177;BME280;24904;52.208;21.192;2023-04-30T17:46:00;100850.55;;;12.90;34.62
39177;BME280;24904;52.208;21.192;2023-04-30T17:51:03;100858.39;;;12.78;34.96
39177;BME280;24904;52.208;21.192;2023-04-30T17:56:07;100867.15;;;12.65;34.84
39177;BME280;24904;52.208;21.192;2023-04-30T18:01:11;100869.96;;;12.55;35.00
39177;BME280;24904;52.208;21.192;2023-04-30T18:06:15;100872.55;;;12.41;35.12
39177;BME280;24904;52.208;21.192;2023-04-30T18:11:19;100879.05;;;12.26;35.38
39177;BME280;24904;52.208;21.192;2023-04-30T18:16:24;100879.02;;;12.11;35.60
39177;BME280;24904;52.208;21.192;2023-04-30T18:21:28;100881.77;;;11.98;35.90
39177;BME280;24904;52.208;21.192;2023-04-30T18:26:32;100888.63;;;11.82;36.25
39177;BME280;24904;52.208;21.192;2023-04-30T18:31:37;100899.44;;;11.66;36.49
39177;BME280;24904;52.208;21.192;2023-04-30T18:36:41;100903.32;;;11.48;36.66
39177;BME280;24904;52.208;21.192;2023-04-30T18:41:46;100906.21;;;11.33;37.36
39177;BME280;24904;52.208;21.192;2023-04-30T18:46:51;100909.88;;;11.17;38.01
39177;BME280;24904;52.208;21.192;2023-04-30T18:51:55;100912.86;;;11.03;38.46
39177;BME280;24904;52.208;21.192;2023-04-30T18:56:59;100915.23;;;10.87;38.43
39177;BME280;24904;52.208;21.192;2023-04-30T19:12:00;100923.64;;;10.40;40.21
39177;BME280;24904;52.208;21.192;2023-04-30T19:17:04;100932.16;;;10.31;41.01
39177;BME280;24904;52.208;21.192;2023-04-30T19:22:07;100938.14;;;10.18;41.44
39177;BME280;24904;52.208;21.192;2023-04-30T19:27:10;100936.30;;;9.95;41.85
39177;BME280;24904;52.208;21.192;2023-04-30T19:32:14;100942.73;;;9.72;42.22
39177;BME280;24904;52.208;21.192;2023-04-30T19:37:17;100945.37;;;9.48;42.99
39177;BME280;24904;52.208;21.192;2023-04-30T19:42:20;100947.25;;;9.33;43.60
39177;BME280;24904;52.208;21.192;2023-04-30T19:47:23;100950.86;;;9.20;44.48
39177;BME280;24904;52.208;21.192;2023-04-30T19:52:26;100950.42;;;9.07;45.13
39177;BME280;24904;52.208;21.192;2023-04-30T19:57:29;100956.27;;;8.92;45.64
39177;BME280;24904;52.208;21.192;2023-04-30T20:02:36;100951.35;;;8.77;45.95
39177;BME280;24904;52.208;21.192;2023-04-30T20:07:39;100953.81;;;8.65;46.20
39177;BME280;24904;52.208;21.192;2023-04-30T20:12:42;100952.48;;;8.51;46.73
39177;BME280;24904;52.208;21.192;2023-04-30T20:17:45;100959.05;;;8.35;47.00
39177;BME280;24904;52.208;21.192;2023-04-30T20:22:49;100957.55;;;8.19;47.17
39177;BME280;24904;52.208;21.192;2023-04-30T20:27:52;100961.42;;;8.05;47.52
39177;BME280;24904;52.208;21.192;2023-04-30T20:32:57;100968.75;;;7.97;47.98
39177;BME280;24904;52.208;21.192;2023-04-30T20:38:00;100970.62;;;7.87;48.27
39177;BME280;24904;52.208;21.192;2023-04-30T20:43:03;100971.19;;;7.76;48.64
39177;BME280;24904;52.208;21.192;2023-04-30T20:48:06;100975.18;;;7.66;48.87
39177;BME280;24904;52.208;21.192;2023-04-30T20:53:10;100974.55;;;7.52;48.93
39177;BME280;24904;52.208;21.192;2023-04-30T20:58:13;100974.02;;;7.40;49.65
39177;BME280;24904;52.208;21.192;2023-04-30T21:03:16;100974.52;;;7.34;49.93
39177;BME280;24904;52.208;21.192;2023-04-30T21:08:19;100981.00;;;7.23;50.11
39177;BME280;24904;52.208;21.192;2023-04-30T21:13:22;100984.38;;;7.12;50.83
39177;BME280;24904;52.208;21.192;2023-04-30T21:18:25;100989.25;;;7.04;51.27
39177;BME280;24904;52.208;21.192;2023-04-30T21:23:28;100995.39;;;6.97;51.63
39177;BME280;24904;52.208;21.192;2023-04-30T21:28:31;101001.27;;;6.98;52.21
39177;BME280;24904;52.208;21.192;2023-04-30T21:33:36;101005.56;;;7.01;52.30
39177;BME280;24904;52.208;21.192;2023-04-30T21:38:39;101013.00;;;6.86;52.25
39177;BME280;24904;52.208;21.192;2023-04-30T21:43:43;101018.13;;;6.64;52.48
39177;BME280;24904;52.208;21.192;2023-04-30T21:48:46;101029.70;;;6.54;53.08
39177;BME280;24904;52.208;21.192;2023-04-30T21:53:49;101028.80;;;6.43;53.09
39177;BME280;24904;52.208;21.192;2023-04-30T21:58:52;101037.00;;;6.33;53.47
39177;BME280;24904;52.208;21.192;2023-04-30T22:03:55;101039.92;;;6.20;53.82
39177;BME280;24904;52.208;21.192;2023-04-30T22:08:58;101043.35;;;6.11;54.28
39177;BME280;24904;52.208;21.192;2023-04-30T22:14:01;101053.23;;;6.03;54.56
39177;BME280;24904;52.208;21.192;2023-04-30T22:19:05;101059.75;;;5.96;54.85
39177;BME280;24904;52.208;21.192;2023-04-30T22:24:08;101063.21;;;5.86;54.71
39177;BME280;24904;52.208;21.192;2023-04-30T22:29:11;101069.77;;;5.77;55.08
39177;BME280;24904;52.208;21.192;2023-04-30T22:34:14;101078.59;;;5.66;55.53
39177;BME280;24904;52.208;21.192;2023-04-30T22:39:20;101083.92;;;5.62;55.84
39177;BME280;24904;52.208;21.192;2023-04-30T22:44:23;101086.05;;;5.61;56.19
39177;BME280;24904;52.208;21.192;2023-04-30T22:49:28;101089.00;;;5.55;56.20
39177;BME280;24904;52.208;21.192;2023-04-30T22:54:32;101089.58;;;5.49;56.57
39177;BME280;24904;52.208;21.192;2023-04-30T22:59:35;101096.57;;;5.45;56.60
39177;BME280;24904;52.208;21.192;2023-04-30T23:04:38;101099.63;;;5.43;56.67
39177;BME280;24904;52.208;21.192;2023-04-30T23:09:41;101104.30;;;5.42;57.07
39177;BME280;24904;52.208;21.192;2023-04-30T23:14:46;101103.70;;;5.37;56.90
39177;BME280;24904;52.208;21.192;2023-04-30T23:19:49;101108.15;;;5.30;57.08
39177;BME280;24904;52.208;21.192;2023-04-30T23:24:52;101115.48;;;5.23;57.41
39177;BME280;24904;52.208;21.192;2023-04-30T23:29:58;101113.02;;;5.18;57.67
39177;BME280;24904;52.208;21.192;2023-04-30T23:35:01;101112.72;;;5.14;57.88
39177;BME280;24904;52.208;21.192;2023-04-30T23:40:07;101107.93;;;5.09;57.87
39177;BME280;24904;52.208;21.192;2023-04-30T23:45:11;101110.44;;;5.01;58.06
39177;BME280;24904;52.208;21.192;2023-04-30T23:50:14;101118.42;;;4.96;58.32
39177;BME280;24904;52.208;21.192;2023-04-30T23:55:17;101125.16;;;4.89;58.56
